x

New London Ledge Ct - Ledge Light Weather Station (ldlc3) Weather Station

7:50pm - Sun 25th Sep 2016 All times are EDT. -4 hours from GMT.

  • Wind
    10mph, 13mph gusts
  • 空気 Temp 62°f
  • Sea Pressure 1020.1mb
  • New London Ledge Ct - Ledge Light Weather Station
  • New London Ledge Ct - Ledge Light Weather Station

More Historic Weather Station data

Upgrade to MSW Pro to gain access to the past 30 days of data for over 8000 Wavebouys and Weather Stations around the globe.

Join Pro

Comparision Forecast

View Surf forecast
   
Sun 09/25 7:50pm 10 13 mph 1020.1mb 62f
7:35pm 13 14 mph 1019.9mb 62f
7:20pm 10 11 mph 1019.8mb 62f
7:05pm 9 10 mph 1019.7mb 63f
6:50pm 9 11 mph 1019.4mb 64f
6:35pm 10 13 mph 1019.1mb 65f
6:20pm 11 14 mph 1018.8mb 65f
6:05pm 10 14 mph 1018.6mb 66f
5:50pm 14 16 mph 1018.5mb 67f
5:35pm 10 14 mph 1018.4mb 67f
5:20pm 11 14 mph 1018.4mb 67f
5:05pm 17 21 mph 1018.2mb 67f
4:50pm 13 16 mph 1018.2mb 67f
4:35pm 15 17 mph 1018.1mb 67f
4:20pm 15 20 mph 1018.1mb 67f
4:05pm 17 21 mph 1018.3mb 66f
3:50pm 17 24 mph 1018.2mb 66f
3:35pm 14 25 mph 1018.3mb 66f
3:20pm 10 15 mph 1018.4mb 67f
3:05pm 13 16 mph 1018.5mb 66f
2:50pm 9 14 mph 1018.6mb 66f
2:35pm 16 23 mph 1018.6mb 66f
2:20pm 16 22 mph 1018.7mb 65f
2:05pm 13 16 mph 1019mb 65f
1:50pm 16 21 mph 1019.1mb 64f
1:35pm 17 22 mph 1019.2mb 64f
1:20pm 20 23 mph 1019.4mb 63f
1:05pm 18 24 mph 1019.6mb 63f
12:50pm 13 18 mph 1019.8mb 63f
12:35pm 14 20 mph 1020mb 62f
12:20pm 11 16 mph 1020.2mb 62f
12:05pm 14 17 mph 1020.2mb 61f
11:50am 15 20 mph 1020.3mb 61f
11:35am 22 26 mph 1020.2mb 60f
11:20am 20 24 mph 1020.4mb 60f
11:05am 20 23 mph 1020.5mb 60f
10:50am 18 22 mph 1020.8mb 59f
10:35am 16 20 mph 1020.8mb 59f
10:20am 16 20 mph 1020.8mb 59f
10:05am 17 21 mph 1020.9mb 58f
9:50am 16 20 mph 1020.8mb 58f
9:35am 15 18 mph 1020.8mb 58f
9:20am 11 15 mph 1020.9mb 57f
9:05am 13 15 mph 1021.1mb 57f
8:50am 10 14 mph 1021.3mb 56f
8:35am 9 13 mph 1021.2mb 55f
8:20am 9 11 mph 1021.1mb 54f
8:05am 9 11 mph 1021.2mb 54f
7:50am 10 14 mph 1021.1mb 53f
7:35am 11 14 mph 1020.9mb 52f
7:20am 10 13 mph 1020.9mb 52f
7:05am 11 13 mph 1020.7mb 52f
6:50am 11 15 mph 1020.7mb 52f
6:35am 13 15 mph 1020.4mb 51f
6:20am 13 18 mph 1020.2mb 52f
6:05am 14 18 mph 1020.1mb 52f
5:50am 14 18 mph 1020.1mb 53f
5:35am 14 17 mph 1020.1mb 53f
5:20am 13 16 mph 1020mb 53f
5:05am 15 18 mph 1019.7mb 54f
4:50am 14 18 mph 1019.4mb 54f
4:35am 11 14 mph 1019.4mb 53f
4:20am 11 14 mph 1019.4mb 53f
4:05am 14 17 mph 1019.2mb 54f
3:50am 14 17 mph 1019.2mb 54f
3:35am 14 16 mph 1019.2mb 54f
3:20am 16 17 mph 1019.1mb 54f
3:05am 15 17 mph 1019.2mb 54f
2:50am 13 15 mph 1019.2mb 53f
2:35am 11 13 mph 1019.2mb 54f
2:20am 10 11 mph 1019.2mb 54f
2:05am 11 13 mph 1019.2mb 54f
1:50am 9 11 mph 1019.2mb 54f
1:35am 9 10 mph 1019.2mb 54f
1:20am 9 11 mph 1019.2mb 54f
1:05am 9 10 mph 1019.1mb 54f
Sat 09/24 7:50pm 9 11 mph 1018.5mb 63f
7:35pm 7 8 mph 1018.4mb 64f
7:20pm 8 9 mph 1018.3mb 64f
7:05pm 7 8 mph 1018.2mb 65f
6:50pm 8 10 mph 1018.1mb 65f
6:35pm 9 13 mph 1018mb 66f
6:20pm 11 14 mph 1017.9mb 66f
6:05pm 7 9 mph 1017.7mb 66f
5:50pm 8 11 mph 1017.5mb 67f
5:35pm 14 16 mph 1017.4mb 68f
5:20pm 14 18 mph 1017.4mb 68f
5:05pm 13 17 mph 1017.4mb 67f
4:50pm 11 15 mph 1017.4mb 67f
4:35pm 15 21 mph 1017.4mb 67f
4:20pm 20 23 mph 1017.2mb 67f
4:05pm 16 21 mph 1017.2mb 67f
3:50pm 15 22 mph 1017.2mb 67f
3:35pm 14 18 mph 1017.2mb 67f
3:20pm 16 18 mph 1017.2mb 66f
3:05pm 13 15 mph 1017.5mb 66f
2:50pm 14 23 mph 1017.7mb 67f
2:35pm 13 15 mph 1017.9mb 66f
2:20pm 16 21 mph 1017.8mb 68f
2:05pm 15 18 mph 1017.8mb 66f
1:50pm 13 17 mph 1018mb 65f
1:35pm 7 11 mph 1018.3mb 65f
1:20pm 14 18 mph 1018.3mb 65f
1:05pm 11 16 mph 1018.4mb 64f
12:50pm 13 16 mph 1018.5mb 65f
12:35pm 17 22 mph 1018.5mb 64f
12:20pm 15 18 mph 1018.5mb 64f
12:05pm 11 15 mph 1018.5mb 65f
11:50am 13 18 mph 1018.8mb 63f
11:35am 15 20 mph 1018.9mb 64f
11:20am 13 17 mph 1019mb 63f
11:05am 16 21 mph 1019.1mb 62f
10:50am 13 16 mph 1019mb 62f
10:35am 13 20 mph 1019mb 62f
10:20am 10 14 mph 1019.1mb 61f
10:05am 14 17 mph 1019.2mb 60f
9:50am 14 17 mph 1019.2mb 60f
9:35am 14 18 mph 1018.9mb 59f
9:20am 13 16 mph 1018.7mb 58f
9:05am 14 18 mph 1018.8mb 58f
8:50am 16 20 mph 1018.7mb 57f
8:35am 14 16 mph 1018.8mb 58f
8:20am 14 17 mph 1018.9mb 57f
8:05am 14 15 mph 1018.6mb 58f
7:50am 15 18 mph 1018.6mb 58f
7:35am 16 18 mph 1018.6mb 58f
7:20am 14 16 mph 1018.5mb 58f
7:05am 8 11 mph 1018.5mb 57f
6:50am 9 14 mph 1018.1mb 57f
6:35am 10 15 mph 1018.1mb 57f
6:20am 15 18 mph 1017.9mb 57f
6:05am 16 21 mph 1017.9mb 57f
5:50am 14 17 mph 1017.7mb 57f
5:35am 11 15 mph 1017.5mb 58f
5:20am 10 14 mph 1017.5mb 57f
5:05am 10 15 mph 1017.3mb 58f
4:50am 9 11 mph 1017.5mb 58f
4:35am 7 10 mph 1017.7mb 58f
4:20am 9 11 mph 1017.5mb 57f
4:05am 9 13 mph 1017.6mb 57f
3:50am 9 13 mph 1017.5mb 58f
3:35am 9 13 mph 1017.8mb 58f
3:20am 9 14 mph 1017.5mb 58f
3:05am 10 15 mph 1017.5mb 58f
2:50am 11 17 mph 1017mb 59f
2:35am 14 21 mph 1017.3mb 60f
2:20am 11 16 mph 1017.1mb 61f
2:05am 15 20 mph 1016.9mb 61f
1:50am 18 24 mph 1017mb 62f
1:35am 14 21 mph 1017mb 62f
1:20am 14 21 mph 1016.8mb 62f
1:05am 14 18 mph 1016.4mb 63f
Fri 09/23 7:50pm 2 3 mph 1013.6mb 71f
7:35pm 2 3 mph 1013.7mb 72f
7:20pm  -  2 mph 1013.7mb 72f
7:05pm  -  1 mph 1013.7mb 72f
6:50pm 2 3 mph 1013.6mb 72f
6:35pm 6 7 mph 1013.3mb 72f
6:20pm 5 6 mph 1013.3mb 75f
6:05pm 3
mph
1013.4mb 74f
5:50pm 1 2 mph 1013.6mb 74f
5:35pm 2 3 mph 1013.2mb 74f
5:20pm 5 6 mph 1013.1mb 73f
5:05pm 6
mph
1012.8mb 74f
4:50pm 8
mph
1012.6mb 74f
4:35pm 8
mph
1012.7mb 73f
4:20pm 7
mph
1012.9mb 74f
4:05pm 9
mph
1013.1mb 73f
3:50pm 9
mph
1013.3mb 73f
3:35pm 8
mph
1013.5mb 72f
3:20pm 7 8 mph 1013.6mb 73f
3:05pm 8 9 mph 1013.6mb 73f
2:50pm 7 8 mph 1013.8mb 73f
2:35pm 9 10 mph 1013.9mb 73f
2:20pm 10 11 mph 1013.9mb 73f
2:05pm 10 11 mph 1014.2mb 72f
1:50pm 10 11 mph 1014.4mb 72f
1:35pm 9 10 mph 1014.8mb 72f
1:20pm 10 11 mph 1014.7mb 72f
1:05pm 9 10 mph 1014.9mb 72f
12:50pm 9 10 mph 1015.1mb 72f
12:35pm 10 13 mph 1015mb 71f
12:20pm 10 11 mph 1015.1mb 71f
12:05pm 9 11 mph 1015mb 73f
11:50am 10 11 mph 1015.1mb 71f
11:35am 10 11 mph 1015.1mb 71f
11:20am 10 11 mph 1015.3mb 69f
11:05am 13 14 mph 1015.3mb 71f
10:50am 11 13 mph 1015.5mb 71f
10:35am 8 9 mph 1015.8mb 70f
10:20am 7 8 mph 1016.1mb 70f
10:05am 6 7 mph 1016.2mb 71f
9:50am 5 6 mph 1016.4mb 70f
9:35am 3 6 mph 1016.5mb 69f
9:20am 5 6 mph 1016.3mb 69f
9:05am  -  1 mph 1016.5mb 72f
8:50am 2 5 mph 1016.5mb 70f
8:35am 6 7 mph 1016.6mb 67f
8:20am 6 8 mph 1016.7mb 66f
8:05am 8 9 mph 1016.8mb 65f
7:50am 9 10 mph 1016.9mb 64f
7:35am 11 14 mph 1016.9mb 63f
7:20am 14 15 mph 1016.9mb 63f
7:05am 7 8 mph 1016.7mb 62f
6:50am 6 7 mph 1016.7mb 62f
6:35am 9 10 mph 1016.8mb 61f
6:20am 9 10 mph 1016.8mb 61f
6:05am 11
mph
1016.5mb 61f
5:50am 11 13 mph 1016.5mb 61f
5:35am 8 9 mph 1016.4mb 62f
5:20am 9 10 mph 1016.5mb 62f
5:05am 8 9 mph 1016.6mb 62f
4:50am 8 9 mph 1016.7mb 62f
4:35am 9 11 mph 1016.7mb 62f
4:20am 9 10 mph 1016.7mb 62f
4:05am 10
mph
1016.7mb 62f
3:50am 8 9 mph 1016.7mb 63f
3:35am 3 5 mph 1016.5mb 63f
3:20am 5
mph
1016.6mb 63f
3:05am 3
mph
1016.9mb 63f
2:50am 3 5 mph 1016.9mb 63f
2:35am 9 10 mph 1017.2mb 63f
2:20am 9 11 mph 1017.3mb 63f
2:05am 9 10 mph 1017.4mb 63f
1:50am 10 11 mph 1017.5mb 64f
1:35am 10
mph
1017.5mb 64f
1:20am 8 9 mph 1017.5mb 64f
1:05am 9 10 mph 1017.5mb 65f
Thu 09/22 7:50pm 3 5 mph 1019.3mb 71f
7:35pm 5 6 mph 1019.2mb 71f
7:20pm 5
mph
1019.2mb 71f
7:05pm 6
mph
1019.1mb 72f
6:50pm 5 6 mph 1019.1mb 72f
6:35pm 5
mph
1019.1mb 72f
6:20pm 5 6 mph 1019.1mb 74f
6:05pm 3 5 mph 1019.1mb 74f
5:50pm 3
mph
1019.2mb 75f
5:35pm 3 5 mph 1019.2mb 76f
5:20pm 2 3 mph 1019.2mb 77f
5:05pm 2
mph
1019.3mb 77f
4:50pm 2
mph
1019.3mb 78f
4:35pm 1 2 mph 1019.3mb 77f
4:20pm 2
mph
1019.3mb 73f
4:05pm 2 3 mph 1019.5mb 74f
3:50pm 2 3 mph 1019.7mb 78f
3:35pm 1 2 mph 1019.7mb 79f
3:20pm 2 3 mph 1019.8mb 77f
3:05pm 2 3 mph 1019.7mb 79f
2:50pm  -  2 mph 1019.6mb 75f
2:35pm 5 6 mph 1019.7mb 74f
2:20pm 7
mph
1019.7mb 73f
2:05pm 6
mph
1019.7mb 73f
1:50pm 7
mph
1019.9mb 73f
1:35pm 7 8 mph 1020.1mb 72f
1:20pm 8 9 mph 1020.2mb 73f
1:05pm 9
mph
1020.5mb 73f
12:50pm 9 10 mph 1020.8mb 72f
12:35pm 9
mph
1020.8mb 73f
12:20pm 10
mph
1021.2mb 72f
12:05pm 9
mph
1021.3mb 72f
11:50am 9 10 mph 1021.5mb 71f
11:35am 8 10 mph 1021.6mb 71f
11:20am 7 9 mph 1021.9mb 72f
11:05am 7 8 mph 1022mb 71f
10:50am 6 7 mph 1022mb 72f
10:35am 7 8 mph 1022mb 72f
10:20am 7 9 mph 1021.9mb 71f
10:05am 6 7 mph 1021.9mb 71f
9:50am 3 5 mph 1021.8mb 71f
9:35am 5 7 mph 1021.7mb 70f
9:20am 8 9 mph 1021.5mb 70f
9:05am 9 11 mph 1021.2mb 69f
8:50am 9 10 mph 1021.3mb 68f
8:35am 9 11 mph 1021.1mb 67f
8:20am 10 11 mph 1020.9mb 67f
8:05am 5 8 mph 1020.9mb 67f
7:50am 3 6 mph 1021.1mb 66f
7:35am 5 7 mph 1021mb 65f
7:20am 5 6 mph 1020.9mb 64f
7:05am 6 9 mph 1020.8mb 64f
6:50am 3 5 mph 1020.8mb 63f
6:35am 2 5 mph 1020.7mb 63f
6:20am 7 9 mph 1020.6mb 63f
6:05am 6 7 mph 1020.6mb 63f
5:50am 10 11 mph 1020.4mb 62f
5:35am 7 9 mph 1020.5mb 63f
5:20am 6 7 mph 1020.5mb 63f
5:05am 8 9 mph 1020.4mb 63f
4:50am 7 8 mph 1020.4mb 63f
4:35am 11 13 mph 1020.5mb 64f
4:20am 9 11 mph 1020.7mb 64f
4:05am 8
mph
1020.5mb 64f
3:50am 11 13 mph 1020.4mb 64f
3:35am 11 14 mph 1020.2mb 64f
3:20am 14 15 mph 1020.2mb 64f
3:05am 10 13 mph 1020.2mb 65f
2:50am 11 13 mph 1020.2mb 64f
2:35am 13 14 mph 1020.3mb 64f
2:20am 10 11 mph 1020.3mb 65f